Sunday, September 21, 2014
14:14 UTC
  |  Log In   |  Register Free
Airport Search:

Fairfield County Airport
(KFDW)

Fairfield County Airport Diagram
No Airport Diagram Available

FAA data valid effective September 18, 2014 - November 13, 2014 (unless otherwise noted).

 
 
 
 
 
 
 
 
 
 
 
 
 
 

Current Aviation Weather for Fairfield County Airport (KFDW)

The most recent METAR observation for KFDW was updated at: 1410
METAR Summary (Translated METAR)
KFDW
211355Z AUTO 28003KT 10SM CLR 21/17 A2999 RMK AO1
KCUB
211353Z AUTO 00000KT 10SM CLR 22/16 A3000 RMK AO2 SLP155 T02220156
(21.5 nm SE from KFDW)
KCAE
211356Z 00000KT 10SM FEW180 23/17 A2998 RMK AO2 SLP151 T02280172
(22.6 nm SW from KFDW)
TAF Summary (Translated TAF)
KCUB
(21.5 nm SE from KFDW)
211125Z 2112/2212 VRB03KT P6SM SCT200 FM211500 28007KT P6SM SKC FM212100 24007KT P6SM SKC
KCAE
(22.6 nm SW from KFDW)
211125Z 2112/2212 VRB04KT P6SM SCT200 FM211500 28009KT P6SM SKC FM212100 24008KT P6SM SKC
  Airport Weather Conditions for KFDW

 Current Weather at FDW
63° F
Fair
North winds at 0.0 mph
FDW NOAA Radar

Pressure: 29.98 in
Humidity: 100%
Wind: Calm
Dew Point: 62.6°F
Visibility: 10.00 mi


Airport Weather Forecast for KFDW

Translated METAR and TAF for KFDW
Translated METAR for KFDW (1408 UTC 21 September 2014)
found at http://aviationweather.gov/adds/metars/
 
METAR text: KFDW 211355Z AUTO 28003KT 10SM CLR 21/17 A2999 RMK AO1
Conditions at: KFDW (WINNSBORO , SC, US) observed 1355 UTC 21 September 2014
Temperature: 21.0°C (70°F)
Dewpoint: 17.0°C (63°F) [RH = 78%]
Pressure (altimeter): 29.99 inches Hg (1015.7 mb)
Winds: from the W (280 degrees) at 3 MPH (3 knots; 1.6 m/s)
Visibility: 10 or more miles (16+ km)
Ceiling: at least 12,000 feet AGL
Clouds: sky clear below 12,000 feet AGL
Weather: automated observation with no human augmentation;
there may or may not be significant weather present at this time
Translated TAF for KFDW

There is no translated TAF available for this airport

Find All Airport Services Find A Hotel Find A Rental Car Find A Golf Course Find A Restaurant $100 Hamburger



FBO's on the Field
FBO Company Facility Photos Services Transportation Aviation Fuel Prices: Prices include tax
Catering Weather Repair Courtesy Rental Type 100LL JetA JetA+ MOGAS 8087
 
S & S Aviation Services

This FBO has not yet been rated
FS:Shell
Last Updated: Sep-02
Login to update fuel prices
SS:
Contact S & S Aviation ServicesMore FBO Information
 
Add another FBO Facility Photos Catering Weather Repair Courtesy Rental Type 100LL JetA JetA+ MOGAS 8087
Services Transportation Aviation Fuel Prices: Prices include tax


model-print
model-print
model-print
model-print